Time;durP1;ratioP1;P1;durP2;ratioP2;P2;SDS_P1;SDS_P2;PMS_P1;PMS_P2;Temp;Humidity;BMP_temperature;BMP_pressure;BME280_temperature;BME280_humidity;BME280_pressure;Samples;Min_cycle;Max_cycle;Signal;HPM_P1;HPM_P2
2022/03/23 00:00:02;;;;;;;10.40;7.22;;;8.30;43.50;;;;;;5114604;28;20084;-73
2022/03/23 00:02:28;;;;;;;10.95;7.47;;;8.30;43.40;;;;;;5058492;28;20032;-73
2022/03/23 00:04:54;;;;;;;11.82;7.30;;;8.20;43.80;;;;;;5074804;28;20025;-73
2022/03/23 00:07:21;;;;;;;12.82;6.68;;;8.20;42.90;;;;;;5075101;28;20117;-73
2022/03/23 00:09:48;;;;;;;9.43;6.40;;;8.30;42.80;;;;;;5086165;28;20032;-73
2022/03/23 00:12:14;;;;;;;13.02;6.43;;;8.30;42.70;;;;;;5094193;28;20036;-78
2022/03/23 00:14:40;;;;;;;8.77;6.47;;;8.30;42.90;;;;;;5093947;28;20013;-78
2022/03/23 00:17:05;;;;;;;12.38;6.03;;;8.30;43.00;;;;;;5094584;28;20023;-78
2022/03/23 00:19:31;;;;;;;9.98;7.25;;;8.20;42.80;;;;;;5075673;28;20439;-78
2022/03/23 00:21:57;;;;;;;9.93;6.70;;;8.20;43.00;;;;;;5093402;28;20024;-78
2022/03/23 00:24:26;;;;;;;11.20;6.93;;;8.10;43.00;;;;;;5094241;28;20024;-78
2022/03/23 00:26:52;;;;;;;10.85;6.75;;;8.20;42.80;;;;;;5094278;28;20026;-78
2022/03/23 00:29:17;;;;;;;10.00;6.43;;;8.10;42.60;;;;;;5094125;28;20103;-78
2022/03/23 00:31:43;;;;;;;7.70;5.88;;;8.10;42.60;;;;;;5081537;28;20464;-78
2022/03/23 00:34:09;;;;;;;7.50;6.32;;;8.10;42.30;;;;;;5056087;28;20017;-78
2022/03/23 00:36:34;;;;;;;8.23;6.13;;;8.10;42.10;;;;;;5073873;28;20028;-78
2022/03/23 00:39:00;;;;;;;10.20;5.65;;;8.10;42.10;;;;;;5073938;28;20426;-78
2022/03/23 00:41:26;;;;;;;11.90;6.90;;;8.10;42.20;;;;;;5074102;28;20545;-78
2022/03/23 00:43:51;;;;;;;8.07;6.65;;;8.10;42.20;;;;;;5056264;28;20111;-78
2022/03/23 00:46:18;;;;;;;9.35;5.80;;;8.10;42.20;;;;;;5055835;28;20473;-78
2022/03/23 00:48:43;;;;;;;7.22;5.35;;;8.10;42.00;;;;;;5074028;28;20078;-78
2022/03/23 00:51:09;;;;;;;7.05;5.78;;;8.10;42.00;;;;;;5055615;28;20036;-78
2022/03/23 00:53:35;;;;;;;10.80;5.85;;;8.00;42.10;;;;;;5073744;28;20024;-78
2022/03/23 00:56:01;;;;;;;8.52;5.47;;;8.00;42.10;;;;;;5073755;28;20024;-78
2022/03/23 00:58:27;;;;;;;9.35;5.45;;;8.00;42.20;;;;;;5055556;28;20269;-78
2022/03/23 01:00:53;;;;;;;8.18;6.20;;;8.00;42.20;;;;;;5073600;28;20032;-78
2022/03/23 01:03:19;;;;;;;7.43;5.45;;;8.00;42.10;;;;;;5073732;28;20039;-78
2022/03/23 01:05:45;;;;;;;6.57;4.70;;;8.00;42.10;;;;;;5073454;28;20036;-79
2022/03/23 01:08:11;;;;;;;7.32;5.20;;;8.00;41.90;;;;;;5073178;28;20040;-78
2022/03/23 01:10:37;;;;;;;8.27;5.93;;;8.00;41.80;;;;;;5073467;28;20036;-78
2022/03/23 01:13:03;;;;;;;10.27;4.90;;;8.00;41.60;;;;;;5073212;28;20322;-78
2022/03/23 01:15:29;;;;;;;9.52;6.07;;;8.00;41.40;;;;;;5055241;28;20443;-78
2022/03/23 01:17:55;;;;;;;9.10;5.70;;;8.00;41.40;;;;;;5073508;28;20101;-78
2022/03/23 01:20:21;;;;;;;13.15;4.82;;;8.00;41.40;;;;;;5073199;28;20028;-78
2022/03/23 01:22:47;;;;;;;7.57;5.45;;;8.00;41.20;;;;;;5055199;28;20476;-78
2022/03/23 01:25:13;;;;;;;6.63;5.25;;;8.00;41.20;;;;;;5073203;28;20116;-78
2022/03/23 01:27:42;;;;;;;7.20;5.60;;;8.00;41.00;;;;;;5054976;28;20074;-78
2022/03/23 01:30:11;;;;;;;7.97;4.93;;;8.00;40.90;;;;;;5072838;28;20435;-78
2022/03/23 01:32:37;;;;;;;7.78;5.47;;;8.00;41.10;;;;;;5055141;28;20480;-78
2022/03/23 01:35:05;;;;;;;7.28;5.15;;;8.00;40.70;;;;;;5072661;28;20021;-79
2022/03/23 01:37:35;;;;;;;6.68;5.28;;;8.00;40.60;;;;;;5054771;28;20028;-78
2022/03/23 01:40:06;;;;;;;6.47;5.20;;;8.00;41.30;;;;;;5072702;28;20032;-78
2022/03/23 01:42:32;;;;;;;10.07;5.35;;;8.00;40.40;;;;;;5071401;28;20487;-78
2022/03/23 01:44:58;;;;;;;11.15;5.55;;;8.00;40.40;;;;;;5092927;28;20115;-78
2022/03/23 01:47:24;;;;;;;8.68;5.55;;;8.00;40.60;;;;;;5074770;28;20073;-78
2022/03/23 01:49:52;;;;;;;7.25;5.43;;;8.00;40.70;;;;;;5092183;28;20609;-78
2022/03/23 01:52:21;;;;;;;6.53;4.90;;;8.00;40.70;;;;;;5074628;28;20027;-78
2022/03/23 01:54:48;;;;;;;8.80;5.63;;;8.00;40.90;;;;;;5092787;28;20107;-78
2022/03/23 01:57:15;;;;;;;7.72;5.25;;;7.90;40.90;;;;;;5074717;28;20024;-78
2022/03/23 01:59:41;;;;;;;7.47;5.18;;;7.90;40.70;;;;;;5074399;28;20024;-78
2022/03/23 02:02:08;;;;;;;6.00;4.97;;;7.90;40.80;;;;;;5092350;28;20035;-78
2022/03/23 02:04:34;;;;;;;7.82;5.45;;;7.90;40.70;;;;;;5092642;28;20053;-78
2022/03/23 02:07:00;;;;;;;5.97;4.70;;;7.90;40.50;;;;;;5092358;28;20115;-78
2022/03/23 02:09:27;;;;;;;7.03;4.90;;;7.90;40.40;;;;;;5074139;28;20032;-78
2022/03/23 02:11:54;;;;;;;6.78;4.65;;;8.00;40.30;;;;;;5074318;28;20017;-78
2022/03/23 02:14:20;;;;;;;9.95;4.90;;;7.90;40.30;;;;;;5092299;28;20023;-78
2022/03/23 02:16:51;;;;;;;6.55;5.10;;;7.90;40.40;;;;;;5074026;28;20024;-78
2022/03/23 02:19:18;;;;;;;9.15;5.03;;;7.90;40.40;;;;;;5091649;28;20020;-79
2022/03/23 02:21:45;;;;;;;9.57;5.03;;;7.90;40.20;;;;;;5092174;28;20020;-78
2022/03/23 02:24:12;;;;;;;11.43;5.10;;;7.90;40.30;;;;;;5092370;28;20012;-78
2022/03/23 02:26:38;;;;;;;12.65;6.43;;;7.90;40.20;;;;;;5092096;28;20315;-78
2022/03/23 02:29:07;;;;;;;8.52;5.13;;;7.90;40.00;;;;;;5092002;28;20023;-78
2022/03/23 02:31:34;;;;;;;7.18;5.07;;;7.90;39.90;;;;;;5073641;28;20028;-78
2022/03/23 02:34:00;;;;;;;10.07;5.43;;;8.00;40.00;;;;;;5073820;28;20387;-78
2022/03/23 02:36:25;;;;;;;6.80;5.05;;;8.00;40.00;;;;;;5091803;28;20099;-78
2022/03/23 02:38:51;;;;;;;6.72;4.85;;;8.00;40.10;;;;;;5092004;28;20114;-78
2022/03/23 02:41:17;;;;;;;9.15;5.32;;;8.00;40.00;;;;;;5092038;28;20028;-78
2022/03/23 02:43:43;;;;;;;7.43;5.15;;;7.90;40.10;;;;;;5091714;28;20020;-78
2022/03/23 02:46:17;;;;;;;7.55;4.97;;;8.00;40.10;;;;;;5091668;28;20031;-78
2022/03/23 02:48:43;;;;;;;7.18;5.63;;;8.00;40.10;;;;;;5073696;28;20024;-78
2022/03/23 02:51:12;;;;;;;6.13;4.93;;;8.00;39.90;;;;;;5091720;28;20056;-78
2022/03/23 03:02:20;;;;;;;5.90;5.35;;;7.90;40.30;;;;;;5091096;28;20054;-78
2022/03/23 03:04:47;;;;;;;8.02;5.07;;;7.90;40.10;;;;;;5073483;28;20035;-78
2022/03/23 03:07:12;;;;;;;7.18;5.35;;;7.90;40.20;;;;;;5091271;28;20052;-78
2022/03/23 03:09:38;;;;;;;8.65;5.40;;;7.90;40.20;;;;;;5091534;28;20456;-78
2022/03/23 03:12:04;;;;;;;6.32;5.03;;;7.90;40.10;;;;;;5091603;28;20056;-78
2022/03/23 03:14:31;;;;;;;7.53;4.90;;;7.90;40.40;;;;;;5091486;28;20081;-78
2022/03/23 03:16:57;;;;;;;6.85;4.88;;;7.90;40.40;;;;;;5091353;28;20341;-78
2022/03/23 03:19:22;;;;;;;8.02;5.63;;;7.90;40.60;;;;;;5073351;28;20032;-78
2022/03/23 03:21:51;;;;;;;6.75;5.43;;;7.90;40.70;;;;;;5091322;28;20102;-78
2022/03/23 03:24:20;;;;;;;5.47;4.50;;;7.80;40.70;;;;;;5091413;28;20031;-78
2022/03/23 03:26:46;;;;;;;5.70;4.82;;;7.80;40.70;;;;;;5091133;28;20024;-78
2022/03/23 03:29:12;;;;;;;10.20;4.70;;;7.90;41.00;;;;;;5091410;28;20031;-78
2022/03/23 03:31:38;;;;;;;7.25;5.40;;;7.90;41.10;;;;;;5072963;28;20036;-78
2022/03/23 03:34:04;;;;;;;8.85;6.05;;;7.90;41.30;;;;;;5091195;28;20107;-78
2022/03/23 03:36:30;;;;;;;7.70;5.60;;;7.80;41.40;;;;;;5091281;28;20121;-78
2022/03/23 03:38:55;;;;;;;8.07;5.40;;;7.80;41.50;;;;;;5091134;28;20020;-78
2022/03/23 03:41:21;;;;;;;7.13;5.55;;;7.90;41.60;;;;;;5090629;28;20023;-78
2022/03/23 03:43:48;;;;;;;8.07;5.00;;;7.80;41.80;;;;;;5091406;28;20030;-78
2022/03/23 03:46:14;;;;;;;8.13;5.03;;;7.80;41.80;;;;;;5089795;28;20111;-78
2022/03/23 03:48:40;;;;;;;6.93;5.35;;;7.80;41.90;;;;;;5090988;28;20448;-77
2022/03/23 03:51:07;;;;;;;10.02;6.05;;;7.80;42.00;;;;;;5089880;28;20020;-78
2022/03/23 03:53:33;;;;;;;10.90;6.05;;;7.80;42.20;;;;;;5091120;28;20091;-78
2022/03/23 03:55:59;;;;;;;9.90;6.13;;;7.80;42.30;;;;;;5089627;28;20047;-78
2022/03/23 03:58:25;;;;;;;8.55;6.03;;;7.80;42.50;;;;;;5091097;28;20020;-78
2022/03/23 04:00:51;;;;;;;10.15;5.75;;;7.80;42.50;;;;;;5085487;28;20086;-78
2022/03/23 04:03:17;;;;;;;8.52;6.30;;;7.80;42.30;;;;;;5070658;28;20055;-78
2022/03/23 04:05:42;;;;;;;10.63;5.72;;;7.90;42.40;;;;;;5070792;28;20043;-78
2022/03/23 04:08:08;;;;;;;8.00;5.40;;;7.90;42.50;;;;;;5070640;28;20047;-78
2022/03/23 04:10:35;;;;;;;6.85;5.43;;;7.80;42.50;;;;;;5070469;28;20051;-78
2022/03/23 04:13:01;;;;;;;8.07;6.15;;;7.80;42.50;;;;;;5073387;28;20108;-78
2022/03/23 04:15:27;;;;;;;10.35;6.57;;;7.80;42.40;;;;;;5078918;28;20050;-78
2022/03/23 04:17:54;;;;;;;8.75;6.03;;;7.90;42.50;;;;;;5094479;28;20502;-78
2022/03/23 04:20:20;;;;;;;8.77;6.53;;;7.80;42.40;;;;;;5094605;28;20107;-78
2022/03/23 04:22:46;;;;;;;8.98;6.03;;;7.80;42.40;;;;;;5094394;28;20020;-78
2022/03/23 04:25:13;;;;;;;8.38;5.63;;;7.90;42.20;;;;;;5094270;28;20028;-78
2022/03/23 04:27:49;;;;;;;13.05;5.75;;;7.90;42.30;;;;;;5076132;28;20442;-78
2022/03/23 04:30:17;;;;;;;8.07;5.53;;;7.90;42.30;;;;;;5093888;28;20024;-78
2022/03/23 04:32:45;;;;;;;9.55;6.18;;;7.90;42.50;;;;;;5074020;28;20024;-78
2022/03/23 04:35:12;;;;;;;9.25;6.07;;;7.90;42.50;;;;;;5073981;28;20070;-78
2022/03/23 04:37:38;;;;;;;8.90;5.55;;;7.80;42.30;;;;;;5056132;28;20380;-78
2022/03/23 04:40:05;;;;;;;7.95;5.80;;;7.80;42.30;;;;;;5073616;28;20029;-78
2022/03/23 04:42:31;;;;;;;7.10;4.72;;;7.80;42.30;;;;;;5073828;28;20171;-78
2022/03/23 04:44:56;;;;;;;9.18;6.40;;;7.80;42.60;;;;;;5073838;28;20535;-78
2022/03/23 04:47:22;;;;;;;7.63;5.40;;;7.80;42.60;;;;;;5073723;28;20025;-78
2022/03/23 04:49:48;;;;;;;7.75;5.88;;;7.80;42.70;;;;;;5073817;28;20101;-78
2022/03/23 04:52:16;;;;;;;7.25;5.68;;;7.70;42.70;;;;;;5073699;28;20020;-78
2022/03/23 04:54:43;;;;;;;8.93;6.03;;;7.80;42.80;;;;;;5073467;28;20396;-78
2022/03/23 04:57:09;;;;;;;9.10;5.97;;;7.70;42.90;;;;;;5073376;28;20017;-78
2022/03/23 04:59:34;;;;;;;8.13;5.78;;;7.70;42.80;;;;;;5073669;28;20020;-78
2022/03/23 05:02:00;;;;;;;7.30;5.35;;;7.70;42.80;;;;;;5073289;28;20541;-78
2022/03/23 05:04:26;;;;;;;7.32;5.32;;;7.70;43.00;;;;;;5073328;28;20031;-78
2022/03/23 05:06:51;;;;;;;7.60;5.72;;;7.70;42.90;;;;;;5055569;28;20020;-78
2022/03/23 05:09:17;;;;;;;8.77;5.75;;;7.70;43.50;;;;;;5055163;28;20052;-78
2022/03/23 05:11:43;;;;;;;9.15;5.60;;;7.80;42.80;;;;;;5073199;28;20037;-78
2022/03/23 05:14:09;;;;;;;8.10;5.75;;;7.70;42.70;;;;;;5073182;28;20029;-79
2022/03/23 05:16:34;;;;;;;10.13;5.90;;;7.80;42.70;;;;;;5073097;28;20419;-78
2022/03/23 05:19:00;;;;;;;9.38;6.20;;;7.80;42.70;;;;;;5073302;28;20033;-78
2022/03/23 05:21:26;;;;;;;8.65;6.10;;;7.80;42.80;;;;;;5073169;28;20457;-78
2022/03/23 05:23:51;;;;;;;14.35;6.03;;;7.70;42.80;;;;;;5072081;28;20314;-78
2022/03/23 05:26:17;;;;;;;8.07;5.30;;;7.80;42.70;;;;;;5073047;28;20037;-78
2022/03/23 05:28:46;;;;;;;9.55;6.35;;;7.80;42.80;;;;;;5054901;28;20055;-79
2022/03/23 05:31:12;;;;;;;9.73;6.07;;;7.80;43.00;;;;;;5072836;28;20090;-78
2022/03/23 05:33:37;;;;;;;9.63;5.95;;;7.80;42.90;;;;;;5076005;28;20071;-78
2022/03/23 05:36:03;;;;;;;8.40;6.22;;;7.80;42.80;;;;;;5092212;28;20028;-78
2022/03/23 05:38:29;;;;;;;9.02;6.90;;;7.80;43.00;;;;;;5092747;28;20013;-78
2022/03/23 05:40:55;;;;;;;6.80;5.45;;;7.80;42.80;;;;;;5092465;28;20016;-78
2022/03/23 05:43:20;;;;;;;9.27;5.70;;;7.80;42.70;;;;;;5092627;28;20016;-78
2022/03/23 05:45:46;;;;;;;8.85;5.93;;;7.80;43.00;;;;;;5092400;28;20362;-78
2022/03/23 05:48:12;;;;;;;9.90;5.65;;;7.80;43.10;;;;;;5092601;28;20030;-78
2022/03/23 05:50:40;;;;;;;10.93;6.18;;;7.80;43.20;;;;;;5092254;28;20030;-79
2022/03/23 05:53:07;;;;;;;13.02;6.18;;;7.80;43.40;;;;;;5092491;28;20495;-78
2022/03/23 05:55:34;;;;;;;10.63;5.93;;;7.90;43.30;;;;;;5092207;28;20115;-78
2022/03/23 05:57:59;;;;;;;12.25;6.07;;;7.90;43.30;;;;;;5074159;28;20497;-78
2022/03/23 06:00:25;;;;;;;9.90;6.45;;;7.90;43.20;;;;;;5092349;28;20107;-78
2022/03/23 06:02:51;;;;;;;12.73;6.47;;;8.00;42.60;;;;;;5093486;28;20096;-78
2022/03/23 06:05:17;;;;;;;10.73;5.85;;;8.10;42.10;;;;;;5093617;28;20522;-78
2022/03/23 06:07:43;;;;;;;9.50;6.15;;;8.10;42.30;;;;;;5091216;28;20047;-78
2022/03/23 06:10:09;;;;;;;10.75;5.85;;;8.20;42.50;;;;;;5093756;28;20032;-79
2022/03/23 06:12:35;;;;;;;9.50;5.75;;;8.20;42.90;;;;;;5092458;28;20379;-79
2022/03/23 06:15:01;;;;;;;13.02;7.45;;;8.20;42.90;;;;;;5093520;28;20024;-78
2022/03/23 06:17:27;;;;;;;9.05;5.85;;;8.20;42.90;;;;;;5093717;28;20023;-79
2022/03/23 06:19:53;;;;;;;10.02;5.93;;;8.30;43.10;;;;;;5075172;28;20035;-78
2022/03/23 06:22:19;;;;;;;10.10;6.68;;;8.30;42.80;;;;;;5075434;28;20072;-78
2022/03/23 06:24:45;;;;;;;10.80;6.20;;;8.40;43.10;;;;;;5092196;28;20387;-79
2022/03/23 06:27:11;;;;;;;15.45;6.57;;;8.50;43.10;;;;;;5074045;28;20110;-78
2022/03/23 06:29:37;;;;;;;8.85;5.68;;;8.50;44.00;;;;;;5091986;28;20094;-73
2022/03/23 06:32:03;;;;;;;10.52;6.32;;;8.50;43.70;;;;;;5091791;28;20103;-73
2022/03/23 06:34:29;;;;;;;11.57;7.13;;;8.50;43.50;;;;;;5073592;28;20027;-73
2022/03/23 06:36:55;;;;;;;11.43;6.65;;;8.60;43.40;;;;;;5090642;28;20016;-73
2022/03/23 06:39:24;;;;;;;14.23;6.75;;;8.60;43.40;;;;;;5090000;28;20077;-73
2022/03/23 06:41:50;;;;;;;10.00;7.05;;;8.70;43.60;;;;;;5090354;28;20131;-73
2022/03/23 06:44:16;;;;;;;12.75;7.32;;;8.70;46.00;;;;;;5090722;28;20052;-73
2022/03/23 06:46:42;;;;;;;13.65;7.45;;;8.70;46.00;;;;;;5090768;28;20487;-73
2022/03/23 06:49:07;;;;;;;9.95;6.20;;;8.80;45.50;;;;;;5091158;28;20035;-73
2022/03/23 06:51:33;;;;;;;20.20;6.55;;;8.80;45.10;;;;;;5091246;28;20101;-73
2022/03/23 06:53:59;;;;;;;13.13;6.55;;;8.80;44.90;;;;;;5073280;28;20081;-73
2022/03/23 06:56:24;;;;;;;8.93;5.93;;;8.80;45.40;;;;;;5091670;28;20107;-73
2022/03/23 06:58:50;;;;;;;9.57;6.05;;;8.80;46.00;;;;;;5073320;28;20069;-73
2022/03/23 07:01:16;;;;;;;10.27;6.22;;;8.80;45.70;;;;;;5091599;28;20032;-73
2022/03/23 07:03:41;;;;;;;11.65;6.30;;;8.80;44.60;;;;;;5091765;28;20049;-73
2022/03/23 07:06:07;;;;;;;11.50;6.13;;;8.90;43.70;;;;;;5091337;28;20035;-73
2022/03/23 07:11:17;;;;;;;10.63;6.60;;;8.90;43.60;;;;;;5091489;28;20039;-73
2022/03/23 07:13:43;;;;;;;9.77;6.47;;;8.90;43.50;;;;;;5091312;28;20020;-73
2022/03/23 07:16:08;;;;;;;10.85;7.35;;;8.90;42.70;;;;;;5073254;28;20107;-73
2022/03/23 07:18:34;;;;;;;16.60;7.10;;;9.00;42.30;;;;;;5091339;28;20020;-73
2022/03/23 07:21:02;;;;;;;16.10;7.35;;;9.00;41.70;;;;;;5073070;28;20070;-73
2022/03/23 07:23:28;;;;;;;14.75;7.22;;;9.10;42.50;;;;;;5073066;28;20028;-73
2022/03/23 07:25:54;;;;;;;14.10;7.97;;;9.10;43.30;;;;;;5091348;28;20440;-73
2022/03/23 07:28:19;;;;;;;11.25;7.38;;;9.10;43.80;;;;;;5091253;28;20024;-73
2022/03/23 07:30:48;;;;;;;15.35;8.43;;;9.10;44.10;;;;;;5091190;28;20031;-74
2022/03/23 07:33:14;;;;;;;11.15;7.80;;;9.20;44.50;;;;;;5091627;28;20012;-73
2022/03/23 07:35:40;;;;;;;11.73;7.82;;;9.20;44.50;;;;;;5091030;28;20386;-74
2022/03/23 07:38:05;;;;;;;15.13;7.63;;;9.30;43.90;;;;;;5091113;28;20020;-73
2022/03/23 07:40:31;;;;;;;15.20;8.68;;;9.30;43.90;;;;;;5090657;28;20028;-73
2022/03/23 07:42:57;;;;;;;16.90;8.43;;;9.30;43.90;;;;;;5073959;28;20036;-73
2022/03/23 07:45:22;;;;;;;11.00;8.13;;;9.40;44.00;;;;;;5090802;28;20025;-73
2022/03/23 07:47:48;;;;;;;12.35;7.18;;;9.40;43.90;;;;;;5074771;28;20053;-73
2022/03/23 07:50:14;;;;;;;17.30;8.38;;;9.40;44.50;;;;;;5093531;28;20395;-73
2022/03/23 07:52:40;;;;;;;14.13;8.43;;;9.50;44.10;;;;;;5093481;28;20059;-73
2022/03/23 07:55:06;;;;;;;8.07;6.60;;;9.50;44.00;;;;;;5093592;28;20050;-73
2022/03/23 07:57:32;;;;;;;9.95;6.40;;;9.60;41.90;;;;;;5076850;28;20027;-74
2022/03/23 07:59:58;;;;;;;10.00;6.65;;;9.80;42.60;;;;;;5094796;28;20096;-73
2022/03/23 08:02:26;;;;;;;13.15;6.65;;;9.80;42.30;;;;;;5094928;28;20107;-73
2022/03/23 08:04:52;;;;;;;10.98;7.00;;;9.90;41.30;;;;;;5076457;28;20107;-73
2022/03/23 08:07:18;;;;;;;11.88;6.30;;;10.10;41.40;;;;;;5094628;28;20034;-74
2022/03/23 08:09:44;;;;;;;11.20;6.80;;;10.30;41.70;;;;;;5094915;28;20402;-73
2022/03/23 08:12:09;;;;;;;13.00;6.47;;;10.40;41.70;;;;;;5092744;28;20012;-73
2022/03/23 08:14:35;;;;;;;9.00;6.75;;;10.40;42.90;;;;;;5093047;28;20016;-73
2022/03/23 08:17:01;;;;;;;12.25;7.35;;;10.50;43.40;;;;;;5074959;28;20022;-73
2022/03/23 08:19:29;;;;;;;19.60;6.93;;;10.50;43.40;;;;;;5093176;28;20024;-73
2022/03/23 08:21:55;;;;;;;10.50;7.13;;;10.60;44.50;;;;;;5093195;28;20016;-73
2022/03/23 08:24:21;;;;;;;10.95;6.90;;;10.60;43.80;;;;;;5075875;28;20114;-73
2022/03/23 08:26:47;;;;;;;12.88;7.32;;;10.60;43.70;;;;;;5094443;28;20427;-73
2022/03/23 08:29:13;;;;;;;12.98;7.45;;;10.60;43.70;;;;;;5093278;28;20023;-73
2022/03/23 08:31:39;;;;;;;14.77;8.15;;;10.70;43.10;;;;;;5092137;28;20032;-73
2022/03/23 08:34:05;;;;;;;17.00;7.90;;;10.80;42.80;;;;;;5092190;28;20436;-73
2022/03/23 08:36:31;;;;;;;12.73;7.80;;;10.90;42.00;;;;;;5092375;28;20169;-73
2022/03/23 08:38:58;;;;;;;11.63;7.25;;;11.00;42.30;;;;;;5073883;28;20115;-74
2022/03/23 08:41:23;;;;;;;15.05;7.50;;;11.10;40.70;;;;;;5074112;28;20376;-73
2022/03/23 08:43:49;;;;;;;12.30;7.22;;;11.30;41.30;;;;;;5092850;28;20031;-73
2022/03/23 08:46:15;;;;;;;10.77;6.10;;;11.20;41.40;;;;;;5094022;28;20136;-73
2022/03/23 08:48:41;;;;;;;11.48;7.07;;;11.20;41.40;;;;;;5075833;28;20024;-74
2022/03/23 08:51:07;;;;;;;14.40;7.32;;;11.20;42.20;;;;;;5093868;28;20024;-74
2022/03/23 08:53:33;;;;;;;10.63;7.78;;;11.40;40.90;;;;;;5075625;28;20498;-73
2022/03/23 08:55:59;;;;;;;14.75;7.60;;;11.40;40.70;;;;;;5093670;28;20020;-73
2022/03/23 08:58:26;;;;;;;10.13;6.68;;;11.30;41.80;;;;;;5074509;28;20085;-74
2022/03/23 09:00:52;;;;;;;13.60;7.68;;;11.40;40.10;;;;;;5093604;28;20028;-74
2022/03/23 09:03:18;;;;;;;11.98;7.35;;;11.50;39.90;;;;;;5093829;28;20042;-73
2022/03/23 09:05:44;;;;;;;12.48;7.22;;;11.70;37.60;;;;;;5093794;28;20028;-74
2022/03/23 09:08:09;;;;;;;10.88;7.13;;;11.70;40.10;;;;;;5075300;28;20101;-73
2022/03/23 09:10:35;;;;;;;10.43;7.13;;;11.70;41.50;;;;;;5093627;28;20040;-73
2022/03/23 09:13:01;;;;;;;10.90;6.75;;;11.80;41.90;;;;;;5093452;28;20107;-73
2022/03/23 09:15:27;;;;;;;11.85;6.45;;;12.00;39.10;;;;;;5093402;28;20124;-74
2022/03/23 09:17:59;;;;;;;11.75;7.25;;;12.00;37.60;;;;;;5093524;28;20116;-74
2022/03/23 09:20:25;;;;;;;9.07;6.40;;;12.20;38.60;;;;;;5093587;28;20024;-74
2022/03/23 09:22:52;;;;;;;11.18;6.68;;;12.30;37.20;;;;;;5075245;28;20498;-73
2022/03/23 09:25:19;;;;;;;12.30;6.57;;;12.40;35.80;;;;;;5093244;28;20021;-74
2022/03/23 09:27:44;;;;;;;15.52;7.40;;;12.40;36.10;;;;;;5093314;28;20509;-73
2022/03/23 09:30:13;;;;;;;17.27;6.93;;;12.50;35.00;;;;;;5093213;28;20021;-74
2022/03/23 09:32:42;;;;;;;12.15;6.97;;;12.60;36.80;;;;;;5073007;28;20472;-74
2022/03/23 09:35:08;;;;;;;8.93;6.63;;;12.80;36.90;;;;;;5072803;28;20273;-74
2022/03/23 09:37:50;;;;;;;14.38;7.00;;;12.80;35.40;;;;;;5072756;28;20025;-73
2022/03/23 09:40:24;;;;;;;14.23;6.82;;;12.70;36.50;;;;;;5072942;28;20077;-74
2022/03/23 09:42:53;;;;;;;10.75;6.78;;;12.80;37.60;;;;;;5072663;28;20021;-74
2022/03/23 09:47:54;;;;;;;15.52;7.03;;;13.10;38.10;;;;;;5072734;28;20028;-73
2022/03/23 09:50:20;;;;;;;11.70;7.93;;;13.10;36.80;;;;;;5072587;28;20036;-73
2022/03/23 09:52:46;;;;;;;14.65;7.35;;;12.90;38.50;;;;;;5072560;28;20484;-73
2022/03/23 09:55:11;;;;;;;15.77;7.57;;;13.00;36.80;;;;;;5054462;28;20395;-74
2022/03/23 09:57:37;;;;;;;17.02;6.93;;;13.10;38.60;;;;;;5054496;28;20016;-74
2022/03/23 10:00:08;;;;;;;10.88;6.75;;;13.10;37.20;;;;;;5072389;28;20024;-73
2022/03/23 10:02:40;;;;;;;12.48;6.72;;;13.20;35.30;;;;;;5073786;28;20028;-73
2022/03/23 10:05:24;;;;;;;14.55;8.52;;;13.20;36.00;;;;;;5092345;28;20097;-75
2022/03/23 10:08:17;;;;;;;10.35;7.65;;;13.20;38.90;;;;;;5092162;28;20051;-73
2022/03/23 10:11:20;;;;;;;12.45;7.05;;;13.20;38.60;;;;;;5090727;28;20028;-74
2022/03/23 10:14:13;;;;;;;14.73;8.43;;;13.30;38.20;;;;;;5074280;28;20039;-73
2022/03/23 10:17:04;;;;;;;12.27;7.20;;;13.50;35.30;;;;;;5074064;28;20051;-74
2022/03/23 10:19:30;;;;;;;15.40;7.80;;;13.30;35.50;;;;;;5092231;28;20051;-74
2022/03/23 10:22:10;;;;;;;11.90;6.82;;;13.60;37.80;;;;;;5074068;28;20097;-74
2022/03/23 10:24:37;;;;;;;10.82;7.03;;;13.70;38.60;;;;;;5092314;28;20072;-73
2022/03/23 10:27:12;;;;;;;13.30;7.55;;;13.80;38.00;;;;;;5092077;28;20115;-73
2022/03/23 10:29:44;;;;;;;12.10;7.30;;;13.80;36.90;;;;;;5092145;28;20016;-73
2022/03/23 10:32:10;;;;;;;13.07;8.20;;;13.80;38.00;;;;;;5092106;28;20020;-73
2022/03/23 10:34:45;;;;;;;11.50;7.25;;;14.00;36.60;;;;;;5073744;28;20028;-73
2022/03/23 10:37:12;;;;;;;12.95;8.23;;;14.00;35.10;;;;;;5092248;28;20027;-73
2022/03/23 10:39:38;;;;;;;11.02;8.23;;;14.20;34.30;;;;;;5091957;28;20027;-73
2022/03/23 10:42:12;;;;;;;11.82;7.43;;;14.20;33.70;;;;;;5091807;28;20027;-73
2022/03/23 10:44:39;;;;;;;12.43;8.07;;;14.30;33.40;;;;;;5091754;28;20024;-73
2022/03/23 10:47:06;;;;;;;17.83;8.65;;;14.40;33.20;;;;;;5073678;28;20020;-73
2022/03/23 10:49:35;;;;;;;15.77;8.57;;;14.50;34.40;;;;;;5091840;28;20519;-73
2022/03/23 10:52:15;;;;;;;13.45;8.35;;;14.50;35.00;;;;;;5091725;28;20066;-73
2022/03/23 10:54:59;;;;;;;14.82;8.25;;;14.60;36.00;;;;;;5091676;28;20048;-73
2022/03/23 10:57:43;;;;;;;15.57;8.48;;;14.70;38.30;;;;;;5073566;28;20028;-73
2022/03/23 11:00:17;;;;;;;19.40;8.90;;;14.90;36.40;;;;;;5091762;28;20051;-73
2022/03/23 11:02:47;;;;;;;23.08;9.90;;;15.00;36.60;;;;;;5091621;28;20024;-73
2022/03/23 11:05:36;;;;;;;14.55;9.40;;;15.20;37.00;;;;;;5091523;28;20047;-73
2022/03/23 11:08:22;;;;;;;19.83;10.02;;;15.50;37.30;;;;;;5073186;28;20036;-73
2022/03/23 11:16:31;;;;;;;16.65;9.55;;;15.80;36.10;;;;;;5091556;28;20070;-73
2022/03/23 11:19:05;;;;;;;13.45;9.25;;;15.90;35.40;;;;;;5091743;28;20020;-73
2022/03/23 11:21:31;;;;;;;12.57;8.35;;;15.90;35.70;;;;;;5092014;28;20062;-73
2022/03/23 11:23:57;;;;;;;15.57;8.30;;;16.00;37.10;;;;;;5077550;28;20044;-73
2022/03/23 11:26:23;;;;;;;13.43;8.05;;;16.10;35.90;;;;;;5077461;28;20050;-73
2022/03/23 11:28:52;;;;;;;14.27;9.00;;;16.10;34.10;;;;;;5077509;28;20024;-74
2022/03/23 11:31:18;;;;;;;15.63;8.50;;;16.10;33.90;;;;;;5095535;28;20020;-73
2022/03/23 11:33:50;;;;;;;13.95;9.40;;;16.20;35.50;;;;;;5095471;28;20077;-73
2022/03/23 11:36:19;;;;;;;17.33;8.68;;;16.40;35.00;;;;;;5077426;28;20625;-73
2022/03/23 11:38:48;;;;;;;17.52;9.48;;;16.40;33.90;;;;;;5095388;28;20016;-73
2022/03/23 11:41:15;;;;;;;17.80;9.93;;;16.40;35.60;;;;;;5095420;28;20016;-73
2022/03/23 11:43:41;;;;;;;12.88;8.85;;;16.50;34.70;;;;;;5095401;28;20394;-74
2022/03/23 11:46:08;;;;;;;15.13;8.50;;;16.70;34.80;;;;;;5077242;28;20045;-73
2022/03/23 11:48:43;;;;;;;18.63;8.20;;;16.70;32.50;;;;;;5095160;28;20032;-73
2022/03/23 11:51:23;;;;;;;14.07;9.30;;;16.80;36.30;;;;;;5095103;28;20529;-73
2022/03/23 11:54:14;;;;;;;12.70;9.30;;;17.00;34.20;;;;;;5077360;28;20034;-74
2022/03/23 11:56:46;;;;;;;15.93;10.00;;;17.10;35.30;;;;;;5077477;28;20754;-73
2022/03/23 11:59:29;;;;;;;17.35;9.48;;;17.20;34.20;;;;;;5095446;28;20494;-73
2022/03/23 12:01:56;;;;;;;16.63;9.32;;;17.10;33.50;;;;;;5094991;28;20020;-73
2022/03/23 12:04:28;;;;;;;17.35;9.73;;;17.30;35.20;;;;;;5095455;28;20035;-73
2022/03/23 12:06:57;;;;;;;15.00;9.82;;;17.40;35.40;;;;;;5095691;28;20039;-73
2022/03/23 12:09:32;;;;;;;24.00;9.82;;;17.40;34.00;;;;;;5076832;28;20077;-73
2022/03/23 12:11:58;;;;;;;15.70;10.60;;;17.40;33.50;;;;;;5095134;28;20043;-73
2022/03/23 12:14:24;;;;;;;11.90;8.40;;;17.30;32.80;;;;;;5095075;28;20044;-73
2022/03/23 12:16:52;;;;;;;15.68;8.80;;;17.40;32.70;;;;;;5094996;28;20066;-73
2022/03/23 12:19:28;;;;;;;14.05;9.10;;;17.40;33.50;;;;;;5094856;28;20020;-73
2022/03/23 12:22:00;;;;;;;16.42;8.82;;;17.50;33.30;;;;;;5094621;28;20071;-73
2022/03/23 12:24:33;;;;;;;17.55;9.35;;;17.60;32.80;;;;;;5076472;28;20020;-73
2022/03/23 12:27:03;;;;;;;13.50;8.27;;;17.70;32.90;;;;;;5076652;28;20047;-73
2022/03/23 12:29:35;;;;;;;12.93;8.60;;;17.70;32.10;;;;;;5094513;28;20156;-73
2022/03/23 12:32:06;;;;;;;14.15;9.23;;;17.70;32.60;;;;;;5076548;28;20035;-73
2022/03/23 12:34:34;;;;;;;13.60;8.77;;;17.80;33.40;;;;;;5094313;28;20051;-73
2022/03/23 12:37:10;;;;;;;15.00;9.38;;;18.00;33.50;;;;;;5094353;28;20027;-73
2022/03/23 12:39:44;;;;;;;11.75;8.73;;;18.10;34.30;;;;;;5094565;28;20450;-73
2022/03/23 12:42:12;;;;;;;13.27;8.85;;;18.20;34.30;;;;;;5094503;28;20052;-74
2022/03/23 12:44:42;;;;;;;14.02;8.57;;;18.30;32.20;;;;;;5094353;28;20032;-73
2022/03/23 12:47:19;;;;;;;12.13;8.15;;;18.30;30.50;;;;;;5094385;28;20020;-73
2022/03/23 12:58:23;;;;;;;10.98;8.38;;;18.40;29.50;;;;;;5094005;28;20046;-73
2022/03/23 13:00:50;;;;;;;11.60;8.60;;;18.30;29.10;;;;;;5075561;28;20020;-73
2022/03/23 13:03:18;;;;;;;10.35;8.60;;;18.40;29.80;;;;;;5075840;28;20493;-73
2022/03/23 13:05:59;;;;;;;15.27;8.82;;;18.40;29.30;;;;;;5075572;28;20036;-73
2022/03/23 13:08:32;;;;;;;11.63;8.50;;;18.50;30.00;;;;;;5075436;28;20140;-73
2022/03/23 13:11:01;;;;;;;14.52;8.95;;;18.60;30.20;;;;;;5075386;28;20498;-73
2022/03/23 13:13:29;;;;;;;14.10;9.45;;;18.60;29.30;;;;;;5093549;28;20031;-73
2022/03/23 13:15:56;;;;;;;13.70;10.02;;;18.60;30.00;;;;;;5093631;28;20023;-74
2022/03/23 13:18:26;;;;;;;13.65;8.85;;;18.60;29.90;;;;;;5093692;28;20024;-73